Time;durP1;ratioP1;P1;durP2;ratioP2;P2;SDS_P1;SDS_P2;PMS_P1;PMS_P2;Temp;Humidity;BMP_temperature;BMP_pressure;BME280_temperature;BME280_humidity;BME280_pressure;Samples;Min_cycle;Max_cycle;Signal;HPM_P1;HPM_P2
2021/09/05 00:01:28;;;;;;;15.35;3.72;;;14.80;99.90;;;;;;5003696;28;20088;-71
2021/09/05 00:04:00;;;;;;;13.45;4.55;;;14.70;99.90;;;;;;4999651;28;20057;-70
2021/09/05 00:06:26;;;;;;;8.77;3.63;;;14.80;99.90;;;;;;5003886;28;20084;-70
2021/09/05 00:08:51;;;;;;;12.40;4.30;;;14.70;99.90;;;;;;5000202;28;20038;-70
2021/09/05 00:11:17;;;;;;;14.25;4.20;;;14.70;99.90;;;;;;4985298;28;20038;-70
2021/09/05 00:13:42;;;;;;;11.75;4.50;;;14.60;99.90;;;;;;5006580;28;20026;-70
2021/09/05 00:16:08;;;;;;;9.32;4.10;;;14.60;99.90;;;;;;5001408;28;20506;-70
2021/09/05 00:18:33;;;;;;;11.40;3.78;;;14.60;99.90;;;;;;5003170;28;20038;-70
2021/09/05 00:20:59;;;;;;;13.07;3.33;;;14.50;99.90;;;;;;4999919;28;20080;-70
2021/09/05 00:23:24;;;;;;;15.13;4.90;;;14.50;99.90;;;;;;5004165;28;20142;-70
2021/09/05 00:25:50;;;;;;;14.02;4.03;;;14.50;99.90;;;;;;4982904;28;20160;-70
2021/09/05 00:28:16;;;;;;;8.32;3.45;;;14.40;99.90;;;;;;5008415;28;20038;-70
2021/09/05 00:30:41;;;;;;;9.68;4.15;;;14.40;99.90;;;;;;5007371;28;20037;-70
2021/09/05 00:33:07;;;;;;;11.73;3.45;;;14.50;99.90;;;;;;5006600;28;20121;-70
2021/09/05 00:35:34;;;;;;;11.27;4.30;;;14.40;99.90;;;;;;5003865;28;20030;-70
2021/09/05 00:38:00;;;;;;;10.82;3.67;;;14.40;99.90;;;;;;4982481;28;20038;-70
2021/09/05 00:40:25;;;;;;;10.73;4.40;;;14.40;99.90;;;;;;5016030;28;20596;-70
2021/09/05 00:42:51;;;;;;;10.38;4.28;;;14.40;99.90;;;;;;5010228;28;20501;-70
2021/09/05 00:45:17;;;;;;;15.93;4.68;;;14.30;99.90;;;;;;4991860;28;20046;-70
2021/09/05 00:47:42;;;;;;;26.55;4.82;;;14.30;99.90;;;;;;5010355;28;20030;-70
2021/09/05 00:50:09;;;;;;;13.73;4.38;;;14.30;99.90;;;;;;5004448;28;20037;-70
2021/09/05 00:52:36;;;;;;;11.02;3.75;;;14.30;99.90;;;;;;4983175;28;20240;-70
2021/09/05 00:55:02;;;;;;;9.65;3.30;;;14.30;99.90;;;;;;5002051;28;20405;-70
2021/09/05 00:57:29;;;;;;;11.05;4.18;;;14.20;99.90;;;;;;4999042;28;20030;-70
2021/09/05 00:59:54;;;;;;;11.85;4.57;;;14.20;99.90;;;;;;5002483;28;20026;-70
2021/09/05 01:02:20;;;;;;;13.43;4.22;;;14.10;99.90;;;;;;4999659;28;20085;-70
2021/09/05 01:04:46;;;;;;;17.13;4.45;;;14.20;99.90;;;;;;4984708;28;20051;-70
2021/09/05 01:07:12;;;;;;;9.05;4.03;;;14.20;99.90;;;;;;5000091;28;20561;-70
2021/09/05 01:09:37;;;;;;;12.35;4.95;;;14.10;99.90;;;;;;4983366;28;20037;-71
2021/09/05 01:12:03;;;;;;;14.82;3.88;;;14.20;99.90;;;;;;5002082;28;20038;-70
2021/09/05 01:14:29;;;;;;;11.90;4.03;;;14.10;99.90;;;;;;5001855;28;20053;-70
2021/09/05 01:16:55;;;;;;;13.82;3.95;;;14.10;99.90;;;;;;4998430;28;20602;-71
2021/09/05 01:19:22;;;;;;;14.75;4.20;;;14.20;99.90;;;;;;5002474;28;20068;-70
2021/09/05 01:21:50;;;;;;;13.40;4.45;;;14.10;99.90;;;;;;4999373;28;20091;-70
2021/09/05 01:24:17;;;;;;;10.38;4.95;;;14.10;99.90;;;;;;4983510;28;20030;-70
2021/09/05 01:26:45;;;;;;;15.20;4.82;;;14.10;99.90;;;;;;4999245;28;20734;-70
2021/09/05 01:29:12;;;;;;;17.48;4.07;;;14.00;99.90;;;;;;4982113;28;20101;-70
2021/09/05 01:31:40;;;;;;;13.80;4.78;;;14.10;99.90;;;;;;4999936;28;20030;-70
2021/09/05 01:34:06;;;;;;;12.95;4.65;;;14.10;99.90;;;;;;4981709;28;20061;-70
2021/09/05 01:36:33;;;;;;;16.83;5.07;;;14.10;99.90;;;;;;4982951;28;20033;-70
2021/09/05 01:38:58;;;;;;;18.65;4.53;;;14.10;99.90;;;;;;4998999;28;20034;-73
2021/09/05 01:41:24;;;;;;;10.82;4.70;;;14.10;99.90;;;;;;5010047;28;20040;-70
2021/09/05 01:43:55;;;;;;;11.95;4.28;;;14.00;99.90;;;;;;5001974;28;20037;-70
2021/09/05 01:46:21;;;;;;;9.27;4.00;;;14.00;99.90;;;;;;4996513;28;20081;-70
2021/09/05 01:48:46;;;;;;;17.00;4.47;;;14.00;99.90;;;;;;5001887;28;20034;-71
2021/09/05 01:51:12;;;;;;;17.27;4.53;;;14.00;99.90;;;;;;5016622;28;20037;-70
2021/09/05 01:53:37;;;;;;;12.43;4.65;;;13.90;99.90;;;;;;4999733;28;20430;-70
2021/09/05 01:56:03;;;;;;;11.73;4.10;;;13.90;99.90;;;;;;4998854;28;20034;-70
2021/09/05 01:58:30;;;;;;;12.32;4.85;;;13.90;99.90;;;;;;5000886;28;20065;-70
2021/09/05 02:00:55;;;;;;;11.95;4.07;;;13.90;99.90;;;;;;4998778;28;20065;-70
2021/09/05 02:03:21;;;;;;;12.23;4.32;;;13.90;99.90;;;;;;5001416;28;20042;-71
2021/09/05 02:05:46;;;;;;;13.52;4.82;;;13.80;99.90;;;;;;4998037;28;20037;-70
2021/09/05 02:08:12;;;;;;;10.75;4.47;;;13.80;99.90;;;;;;5002613;28;20730;-70
2021/09/05 02:10:37;;;;;;;10.77;4.05;;;13.70;99.90;;;;;;5006039;28;20044;-70
2021/09/05 02:13:03;;;;;;;12.05;4.20;;;13.70;99.90;;;;;;5006372;28;20034;-70
2021/09/05 02:15:29;;;;;;;13.07;3.97;;;13.70;99.90;;;;;;5006862;28;20714;-70
2021/09/05 02:17:54;;;;;;;10.57;4.47;;;13.70;99.90;;;;;;5004872;28;20035;-70
2021/09/05 02:20:20;;;;;;;10.90;4.43;;;13.70;99.90;;;;;;5007489;28;20080;-70
2021/09/05 02:22:46;;;;;;;12.20;4.15;;;13.70;99.90;;;;;;5003564;28;20038;-70
2021/09/05 02:25:11;;;;;;;12.38;4.20;;;13.60;99.90;;;;;;5006501;28;20490;-69
2021/09/05 02:27:37;;;;;;;13.18;4.35;;;13.60;99.90;;;;;;5005735;28;20037;-69
2021/09/05 02:30:04;;;;;;;13.65;4.07;;;13.60;99.90;;;;;;4988116;28;20065;-71
2021/09/05 02:32:29;;;;;;;11.18;4.70;;;13.60;99.90;;;;;;5006413;28;20091;-70
2021/09/05 02:34:55;;;;;;;13.60;4.78;;;13.60;99.90;;;;;;5005182;28;20542;-70
2021/09/05 02:37:21;;;;;;;9.95;4.80;;;13.50;99.90;;;;;;5006836;28;20113;-70
2021/09/05 02:39:46;;;;;;;11.93;4.95;;;13.50;99.90;;;;;;5010566;28;20083;-70
2021/09/05 02:42:12;;;;;;;16.70;4.60;;;13.50;99.90;;;;;;5008770;28;20022;-70
2021/09/05 02:44:37;;;;;;;12.70;4.35;;;13.40;99.90;;;;;;5006219;28;20454;-70
2021/09/05 02:47:03;;;;;;;13.98;4.00;;;13.40;99.90;;;;;;5005770;28;20062;-70
2021/09/05 02:49:28;;;;;;;12.20;3.90;;;13.40;99.90;;;;;;4987507;28;20504;-70
2021/09/05 02:51:54;;;;;;;14.07;4.72;;;13.30;99.90;;;;;;5007073;28;20034;-70
2021/09/05 02:54:20;;;;;;;16.50;4.20;;;13.30;99.90;;;;;;5004026;28;20034;-70
2021/09/05 02:56:46;;;;;;;11.32;4.93;;;13.30;99.90;;;;;;5007624;28;20038;-70
2021/09/05 02:59:11;;;;;;;13.52;4.80;;;13.30;99.90;;;;;;5004577;28;20525;-70
2021/09/05 03:01:37;;;;;;;13.15;4.15;;;13.20;99.90;;;;;;5006204;28;20026;-70
2021/09/05 03:04:02;;;;;;;9.85;4.20;;;13.30;99.90;;;;;;5005835;28;20045;-70
2021/09/05 03:06:28;;;;;;;16.63;4.93;;;13.20;99.90;;;;;;5003358;28;20573;-70
2021/09/05 03:08:53;;;;;;;12.43;4.28;;;13.20;99.90;;;;;;5004579;28;20037;-71
2021/09/05 03:11:19;;;;;;;13.70;5.30;;;13.20;99.90;;;;;;4989298;28;20058;-70
2021/09/05 03:13:47;;;;;;;13.65;4.40;;;13.20;99.90;;;;;;4986483;28;20026;-71
2021/09/05 03:16:14;;;;;;;11.02;4.05;;;13.10;99.90;;;;;;5007264;28;20032;-70
2021/09/05 03:18:39;;;;;;;13.10;5.43;;;13.10;99.90;;;;;;5004353;28;20401;-70
2021/09/05 03:21:05;;;;;;;15.27;4.45;;;13.10;99.90;;;;;;5001970;28;20042;-70
2021/09/05 03:23:31;;;;;;;15.05;5.13;;;13.00;99.90;;;;;;5002446;28;20058;-70
2021/09/05 03:25:57;;;;;;;14.52;5.05;;;13.00;99.90;;;;;;5001902;28;20057;-70
2021/09/05 03:28:22;;;;;;;15.02;4.80;;;13.00;99.90;;;;;;5002823;28;20568;-70
2021/09/05 03:30:48;;;;;;;13.57;4.97;;;13.00;99.90;;;;;;5001089;28;20038;-70
2021/09/05 03:33:14;;;;;;;13.93;4.57;;;13.00;99.90;;;;;;4986556;28;20474;-70
2021/09/05 03:35:39;;;;;;;13.27;4.82;;;12.90;99.90;;;;;;5000283;28;20031;-70
2021/09/05 03:38:05;;;;;;;10.93;4.50;;;12.90;99.90;;;;;;4985458;28;20038;-70
2021/09/05 03:40:30;;;;;;;14.57;4.97;;;12.90;99.90;;;;;;5009191;28;20033;-70
2021/09/05 03:42:56;;;;;;;11.52;4.85;;;13.00;99.90;;;;;;5002739;28;20034;-70
2021/09/05 03:45:22;;;;;;;13.55;4.43;;;13.00;99.90;;;;;;5001166;28;20514;-70
2021/09/05 03:47:47;;;;;;;13.30;4.82;;;12.90;99.90;;;;;;5003432;28;20449;-70
2021/09/05 03:50:13;;;;;;;10.93;4.32;;;12.90;99.90;;;;;;5000419;28;20042;-70
2021/09/05 03:52:38;;;;;;;11.40;4.10;;;12.90;99.90;;;;;;5002837;28;20037;-70
2021/09/05 03:55:05;;;;;;;17.17;4.30;;;12.80;99.90;;;;;;4983943;28;20462;-70
2021/09/05 03:57:31;;;;;;;13.35;5.40;;;12.80;99.90;;;;;;5001434;28;20076;-70
2021/09/05 03:59:56;;;;;;;13.95;5.22;;;12.80;99.90;;;;;;5002590;28;20116;-70
2021/09/05 04:02:22;;;;;;;13.63;4.65;;;12.80;99.90;;;;;;5000771;28;20122;-70
2021/09/05 04:04:48;;;;;;;9.73;4.32;;;12.80;99.90;;;;;;5002748;28;20041;-70
2021/09/05 04:07:17;;;;;;;14.90;4.63;;;12.80;99.90;;;;;;5000055;28;20034;-71
2021/09/05 04:12:27;;;;;;;16.77;4.63;;;12.70;99.90;;;;;;5001576;28;20061;-70
2021/09/05 04:14:52;;;;;;;13.90;5.70;;;12.80;99.90;;;;;;5002176;28;20077;-70
2021/09/05 04:17:18;;;;;;;16.85;5.00;;;12.70;99.90;;;;;;5000048;28;20038;-70
2021/09/05 04:19:44;;;;;;;11.93;4.50;;;12.80;99.90;;;;;;5002954;28;20038;-70
2021/09/05 04:22:10;;;;;;;16.55;4.93;;;12.80;99.90;;;;;;4982591;28;20026;-70
2021/09/05 04:24:35;;;;;;;13.27;4.90;;;12.70;99.90;;;;;;4984493;28;20034;-71
2021/09/05 04:27:01;;;;;;;13.75;5.68;;;12.70;99.90;;;;;;5000512;28;20067;-70
2021/09/05 04:29:27;;;;;;;12.52;4.53;;;12.70;99.90;;;;;;4999605;28;20026;-70
2021/09/05 04:31:52;;;;;;;16.73;4.60;;;12.60;99.90;;;;;;4982282;28;20030;-71
2021/09/05 04:34:18;;;;;;;12.73;4.60;;;12.70;99.90;;;;;;5002799;28;20033;-70
2021/09/05 04:36:44;;;;;;;11.32;4.25;;;12.60;99.90;;;;;;4998876;28;20453;-71
2021/09/05 04:39:09;;;;;;;12.77;5.13;;;12.60;99.90;;;;;;5004406;28;20080;-70
2021/09/05 04:41:35;;;;;;;13.35;4.88;;;12.60;99.90;;;;;;5005959;28;20466;-70
2021/09/05 04:44:01;;;;;;;13.25;5.15;;;12.60;99.90;;;;;;4999763;28;20426;-70
2021/09/05 04:46:26;;;;;;;15.27;4.85;;;12.60;99.90;;;;;;4983337;28;20557;-70
2021/09/05 04:48:52;;;;;;;12.40;5.30;;;12.60;99.90;;;;;;5000985;28;20088;-70
2021/09/05 04:51:17;;;;;;;14.07;4.70;;;12.60;99.90;;;;;;4999884;28;20030;-70
2021/09/05 04:53:43;;;;;;;12.15;4.53;;;12.60;99.90;;;;;;5002352;28;20030;-70
2021/09/05 04:56:09;;;;;;;9.73;4.13;;;12.60;99.90;;;;;;4999116;28;20034;-69
2021/09/05 04:58:34;;;;;;;14.75;4.80;;;12.60;99.90;;;;;;4984774;28;20117;-69
2021/09/05 05:01:00;;;;;;;12.55;5.00;;;12.60;99.90;;;;;;4999591;28;20034;-70
2021/09/05 05:03:26;;;;;;;13.32;4.80;;;12.60;99.90;;;;;;5000495;28;20038;-70
2021/09/05 05:05:51;;;;;;;12.48;4.97;;;12.60;99.90;;;;;;4982821;28;20096;-70
2021/09/05 05:08:17;;;;;;;13.23;5.03;;;12.60;99.90;;;;;;4999433;28;20395;-70
2021/09/05 05:10:45;;;;;;;17.23;5.05;;;12.60;99.90;;;;;;5002302;28;20398;-70
2021/09/05 05:13:11;;;;;;;12.73;4.90;;;12.60;99.90;;;;;;4981101;28;20030;-70
2021/09/05 05:15:36;;;;;;;16.05;5.53;;;12.60;99.90;;;;;;4984260;28;20402;-70
2021/09/05 05:18:02;;;;;;;13.88;5.22;;;12.60;99.90;;;;;;4981081;28;20120;-70
2021/09/05 05:20:29;;;;;;;12.82;4.80;;;12.60;99.90;;;;;;4983325;28;20034;-70
2021/09/05 05:22:55;;;;;;;15.40;4.50;;;12.60;99.90;;;;;;4999299;28;20037;-70
2021/09/05 05:25:20;;;;;;;14.70;5.05;;;12.60;99.90;;;;;;4982180;28;20054;-70
2021/09/05 05:27:46;;;;;;;12.60;4.97;;;12.60;99.90;;;;;;4983501;28;20486;-70
2021/09/05 05:30:12;;;;;;;10.18;4.18;;;12.60;99.90;;;;;;4979897;28;20121;-70
2021/09/05 05:32:38;;;;;;;13.55;4.60;;;12.60;99.90;;;;;;5001862;28;20112;-70
2021/09/05 05:35:05;;;;;;;17.10;6.20;;;12.70;99.90;;;;;;4998081;28;20049;-71
2021/09/05 05:37:30;;;;;;;12.30;4.63;;;12.70;99.90;;;;;;5001056;28;21672;-70
2021/09/05 05:39:56;;;;;;;10.15;4.47;;;12.70;99.90;;;;;;5001328;28;20034;-71
2021/09/05 05:42:21;;;;;;;14.80;5.20;;;12.70;99.90;;;;;;5000962;28;20035;-70
2021/09/05 05:44:47;;;;;;;10.73;4.53;;;12.80;99.90;;;;;;4982678;28;20042;-70
2021/09/05 05:47:12;;;;;;;12.43;4.78;;;12.80;99.90;;;;;;4997741;28;20033;-70
2021/09/05 05:49:40;;;;;;;17.80;5.45;;;12.90;99.90;;;;;;4998242;28;20030;-70
2021/09/05 05:52:06;;;;;;;12.07;4.82;;;12.90;99.90;;;;;;5001444;28;20387;-70
2021/09/05 05:54:31;;;;;;;14.02;5.20;;;13.00;99.90;;;;;;4980948;28;20030;-70
2021/09/05 05:56:57;;;;;;;18.40;5.30;;;13.00;99.90;;;;;;4999643;28;20116;-70
2021/09/05 05:59:22;;;;;;;12.77;4.55;;;13.10;99.90;;;;;;4999785;28;20045;-70
2021/09/05 06:01:48;;;;;;;12.95;4.85;;;13.10;99.90;;;;;;4999329;28;20030;-70
2021/09/05 06:04:13;;;;;;;12.27;5.18;;;13.20;99.90;;;;;;5000335;28;20077;-70
2021/09/05 06:06:39;;;;;;;13.20;4.70;;;13.30;99.90;;;;;;4980113;28;20035;-70
2021/09/05 06:09:05;;;;;;;16.48;4.95;;;13.50;99.90;;;;;;4983263;28;20033;-70
2021/09/05 06:11:30;;;;;;;8.60;4.60;;;13.70;99.90;;;;;;4998176;28;20030;-70
2021/09/05 06:13:56;;;;;;;14.07;4.55;;;13.80;99.90;;;;;;5000119;28;20088;-70
2021/09/05 06:16:22;;;;;;;13.82;5.40;;;14.10;99.90;;;;;;4981269;28;20414;-70
2021/09/05 06:18:48;;;;;;;10.77;4.43;;;14.50;99.90;;;;;;4999608;28;20058;-70
2021/09/05 06:21:13;;;;;;;9.30;3.60;;;14.80;99.90;;;;;;5000529;28;20487;-70
2021/09/05 06:23:39;;;;;;;9.55;4.65;;;15.30;99.90;;;;;;4998795;28;20043;-70
2021/09/05 06:26:05;;;;;;;7.97;3.55;;;15.60;99.90;;;;;;5000674;28;20088;-70
2021/09/05 06:28:30;;;;;;;8.63;4.00;;;16.00;99.90;;;;;;4984109;28;20084;-70
2021/09/05 06:30:56;;;;;;;9.80;3.72;;;16.20;99.90;;;;;;4998916;28;20037;-70
2021/09/05 06:33:21;;;;;;;10.32;3.90;;;16.20;99.90;;;;;;4999805;28;20108;-70
2021/09/05 06:35:47;;;;;;;9.30;3.55;;;16.20;99.90;;;;;;5000378;28;20402;-70
2021/09/05 06:38:13;;;;;;;10.38;3.63;;;16.50;99.90;;;;;;4998380;28;20065;-70
2021/09/05 06:40:38;;;;;;;9.38;3.53;;;17.00;99.90;;;;;;4984684;28;20445;-70
2021/09/05 06:43:04;;;;;;;10.52;4.00;;;17.60;99.90;;;;;;4996516;28;20085;-70
2021/09/05 06:45:30;;;;;;;9.55;3.60;;;18.00;99.90;;;;;;4982442;28;20050;-70
2021/09/05 06:47:55;;;;;;;9.77;4.45;;;18.30;99.90;;;;;;4997754;28;20505;-70
2021/09/05 06:50:21;;;;;;;9.48;3.53;;;18.50;99.90;;;;;;4998883;28;20100;-70
2021/09/05 06:52:47;;;;;;;10.98;3.80;;;18.70;99.90;;;;;;4999087;28;20066;-69
2021/09/05 06:55:12;;;;;;;10.05;3.95;;;18.80;99.90;;;;;;4999792;28;20038;-71
2021/09/05 06:57:38;;;;;;;8.77;4.13;;;18.80;99.90;;;;;;5005807;28;20058;-72
2021/09/05 07:00:04;;;;;;;10.02;3.90;;;18.80;99.90;;;;;;5016043;28;20054;-75
2021/09/05 07:02:30;;;;;;;11.23;4.22;;;18.50;99.90;;;;;;5021480;28;20053;-71
2021/09/05 07:04:55;;;;;;;8.13;3.17;;;18.40;99.90;;;;;;5018599;28;20034;-70
2021/09/05 07:07:21;;;;;;;9.38;3.90;;;18.10;99.90;;;;;;5011346;28;20099;-70
2021/09/05 07:09:46;;;;;;;9.82;3.80;;;17.90;99.90;;;;;;4985358;28;20121;-70
2021/09/05 07:12:12;;;;;;;10.43;3.65;;;17.50;99.90;;;;;;5003299;28;20045;-72
2021/09/05 07:14:38;;;;;;;6.75;3.20;;;17.40;99.90;;;;;;5001736;28;20130;-70
2021/09/05 07:17:04;;;;;;;10.73;3.80;;;17.30;99.90;;;;;;4986928;28;20030;-71
2021/09/05 07:19:29;;;;;;;11.77;4.25;;;17.00;99.90;;;;;;5000929;28;20030;-71
2021/09/05 07:21:55;;;;;;;10.50;4.07;;;17.10;99.90;;;;;;5003892;28;20084;-70
2021/09/05 07:24:20;;;;;;;8.60;3.90;;;17.00;99.90;;;;;;5002352;28;20064;-70
2021/09/05 07:26:46;;;;;;;9.20;4.25;;;17.00;99.90;;;;;;5002808;28;20042;-70
2021/09/05 07:29:11;;;;;;;10.02;3.90;;;16.90;99.90;;;;;;4982548;28;20121;-69
2021/09/05 07:31:37;;;;;;;8.45;3.20;;;16.90;99.90;;;;;;5003388;28;20034;-70
2021/09/05 07:34:03;;;;;;;17.17;4.05;;;16.90;99.90;;;;;;5000705;28;20039;-70
2021/09/05 07:36:29;;;;;;;11.13;4.35;;;16.90;99.90;;;;;;5003316;28;20045;-70
2021/09/05 07:38:54;;;;;;;16.40;4.07;;;16.90;99.90;;;;;;5001564;28;20046;-70
2021/09/05 07:41:20;;;;;;;18.52;4.32;;;17.00;99.90;;;;;;4991399;28;20045;-70
2021/09/05 07:43:45;;;;;;;10.80;4.20;;;17.00;99.90;;;;;;4984627;28;20046;-70
2021/09/05 07:46:11;;;;;;;12.80;3.30;;;17.10;99.90;;;;;;5002871;28;20057;-70
2021/09/05 07:48:36;;;;;;;9.52;3.65;;;17.10;99.90;;;;;;5000921;28;20042;-70
2021/09/05 07:51:02;;;;;;;15.07;3.88;;;17.10;99.90;;;;;;5004202;28;20030;-70
2021/09/05 07:53:28;;;;;;;9.82;3.45;;;17.20;99.90;;;;;;5000019;28;20027;-69
2021/09/05 07:55:53;;;;;;;15.98;4.63;;;17.40;99.90;;;;;;4985104;28;20069;-70
2021/09/05 07:58:21;;;;;;;11.25;3.75;;;17.40;99.90;;;;;;5001537;28;20034;-70
2021/09/05 08:00:46;;;;;;;8.35;3.28;;;17.50;99.90;;;;;;4984645;28;20042;-70
2021/09/05 08:03:12;;;;;;;8.02;3.60;;;17.50;99.90;;;;;;5002994;28;20469;-70
2021/09/05 08:05:37;;;;;;;12.23;3.67;;;17.50;99.90;;;;;;5000228;28;20138;-70
2021/09/05 08:08:03;;;;;;;7.38;3.13;;;17.60;99.90;;;;;;5003326;28;20482;-69
2021/09/05 08:10:29;;;;;;;9.88;3.55;;;17.70;99.90;;;;;;4999330;28;20038;-70
2021/09/05 08:12:55;;;;;;;8.93;3.33;;;17.70;99.90;;;;;;5002601;28;20045;-70
2021/09/05 08:15:20;;;;;;;17.02;4.13;;;17.90;99.90;;;;;;4983090;28;20037;-70
2021/09/05 08:17:46;;;;;;;10.77;3.60;;;18.00;99.90;;;;;;5000968;28;20092;-70
2021/09/05 08:20:12;;;;;;;14.15;3.90;;;18.20;99.90;;;;;;5001527;28;20405;-70
2021/09/05 08:22:38;;;;;;;11.82;3.58;;;18.30;99.90;;;;;;4999869;28;20046;-70
2021/09/05 08:25:04;;;;;;;6.90;2.95;;;18.30;99.90;;;;;;5002522;28;20038;-69
2021/09/05 08:27:30;;;;;;;7.82;3.28;;;18.30;99.90;;;;;;4981284;28;20034;-70
2021/09/05 08:29:57;;;;;;;11.30;3.60;;;18.40;99.90;;;;;;5002453;28;20034;-70
2021/09/05 08:32:23;;;;;;;11.52;3.72;;;18.50;99.90;;;;;;5000026;28;20113;-70
2021/09/05 08:34:49;;;;;;;11.90;3.72;;;18.50;99.90;;;;;;5001493;28;20038;-70
2021/09/05 08:37:15;;;;;;;8.18;3.38;;;18.60;99.90;;;;;;5000826;28;20068;-70
2021/09/05 08:39:41;;;;;;;8.60;3.40;;;18.60;99.90;;;;;;4990326;28;20040;-69
2021/09/05 08:42:06;;;;;;;9.20;3.13;;;18.70;99.90;;;;;;5008459;28;20037;-71
2021/09/05 08:44:32;;;;;;;8.23;3.60;;;18.80;99.90;;;;;;4998975;28;20049;-70
2021/09/05 08:46:59;;;;;;;14.23;4.22;;;18.90;99.90;;;;;;4985395;28;20041;-71
2021/09/05 08:49:32;;;;;;;9.02;3.45;;;19.00;99.90;;;;;;4981764;28;20030;-70
2021/09/05 08:51:58;;;;;;;9.75;3.60;;;19.10;99.90;;;;;;4999172;28;20387;-70
2021/09/05 08:54:24;;;;;;;7.57;3.03;;;19.20;99.90;;;;;;5002561;28;20033;-70
2021/09/05 08:56:52;;;;;;;6.55;2.80;;;19.30;99.90;;;;;;4999306;28;20038;-69
2021/09/05 08:59:18;;;;;;;12.52;3.30;;;19.30;99.90;;;;;;5001769;28;20031;-69
2021/09/05 09:02:00;;;;;;;7.18;3.40;;;19.30;99.90;;;;;;4999860;28;20038;-69
2021/09/05 09:04:37;;;;;;;12.10;3.92;;;19.50;99.90;;;;;;4999012;28;20046;-69
2021/09/05 09:07:16;;;;;;;6.53;2.65;;;19.50;99.90;;;;;;4998627;28;20513;-69
2021/09/05 09:09:58;;;;;;;7.18;2.83;;;19.60;99.90;;;;;;5000112;28;20026;-69
2021/09/05 09:12:41;;;;;;;10.35;3.17;;;19.60;99.90;;;;;;4998974;28;20034;-69
2021/09/05 09:15:25;;;;;;;9.23;2.97;;;19.70;99.90;;;;;;4999955;28;20037;-70
2021/09/05 09:17:59;;;;;;;7.60;3.13;;;19.70;99.90;;;;;;4997308;28;20050;-70
2021/09/05 09:20:31;;;;;;;8.80;3.38;;;19.80;99.90;;;;;;4997452;28;20076;-70
2021/09/05 09:23:08;;;;;;;12.23;2.65;;;19.80;99.90;;;;;;4998173;28;20081;-70
2021/09/05 09:25:34;;;;;;;9.95;3.10;;;19.90;99.90;;;;;;4999183;28;20073;-70
2021/09/05 09:27:59;;;;;;;8.60;2.80;;;19.90;99.90;;;;;;4983338;28;20033;-69
2021/09/05 09:30:34;;;;;;;10.15;3.25;;;20.00;99.90;;;;;;4998133;28;20114;-70
2021/09/05 09:33:00;;;;;;;10.73;2.67;;;20.10;99.90;;;;;;4998060;28;20041;-70
2021/09/05 09:35:26;;;;;;;6.68;2.90;;;20.30;99.90;;;;;;5001689;28;20034;-70
2021/09/05 09:37:51;;;;;;;9.27;3.33;;;20.40;99.90;;;;;;4997809;28;20518;-70
2021/09/05 09:40:26;;;;;;;7.60;2.85;;;20.50;99.90;;;;;;5008525;28;20034;-70
2021/09/05 09:42:52;;;;;;;6.47;2.83;;;20.50;99.90;;;;;;4997493;28;20030;-70
2021/09/05 09:45:18;;;;;;;8.48;2.88;;;20.60;99.90;;;;;;4982903;28;20037;-70
2021/09/05 09:47:45;;;;;;;9.88;3.20;;;20.60;99.90;;;;;;4998472;28;20026;-70
2021/09/05 09:50:11;;;;;;;7.32;2.65;;;20.70;99.90;;;;;;4999223;28;20053;-70
2021/09/05 09:52:37;;;;;;;6.90;2.92;;;20.80;99.90;;;;;;4999478;28;20057;-70
2021/09/05 09:55:04;;;;;;;4.88;2.60;;;20.80;99.90;;;;;;4997902;28;20050;-70
2021/09/05 09:57:30;;;;;;;6.18;2.45;;;20.80;99.90;;;;;;4982519;28;20398;-72
2021/09/05 09:59:56;;;;;;;7.75;2.58;;;21.00;99.90;;;;;;4997234;28;20041;-72
2021/09/05 10:02:25;;;;;;;9.35;2.85;;;21.00;99.90;;;;;;5000731;28;20037;-71
2021/09/05 10:04:53;;;;;;;8.57;3.55;;;21.10;99.90;;;;;;4997576;28;20038;-71
2021/09/05 10:07:22;;;;;;;10.32;3.60;;;21.10;99.90;;;;;;4999882;28;20386;-72
2021/09/05 10:09:49;;;;;;;13.57;3.55;;;21.20;99.90;;;;;;4997736;28;20503;-72
2021/09/05 10:12:16;;;;;;;7.85;3.40;;;21.30;99.90;;;;;;4982091;28;20045;-71
2021/09/05 10:14:48;;;;;;;9.23;2.92;;;21.40;99.90;;;;;;4998346;28;20118;-72
2021/09/05 10:17:15;;;;;;;8.63;2.92;;;21.40;99.90;;;;;;4999185;28;20030;-71
2021/09/05 10:19:41;;;;;;;10.48;3.13;;;21.40;99.90;;;;;;4998601;28;20414;-71
2021/09/05 10:22:06;;;;;;;9.70;3.15;;;21.40;99.90;;;;;;4998226;28;20186;-71
2021/09/05 10:24:43;;;;;;;5.88;3.05;;;21.30;99.90;;;;;;4999410;28;20113;-71
2021/09/05 10:27:09;;;;;;;8.07;2.90;;;21.40;99.90;;;;;;4998534;28;20027;-71
2021/09/05 10:29:35;;;;;;;7.20;3.40;;;21.50;99.90;;;;;;5000158;28;20121;-71
2021/09/05 10:32:01;;;;;;;8.10;3.05;;;21.40;99.90;;;;;;4984013;28;20034;-72
2021/09/05 10:34:34;;;;;;;6.07;2.70;;;21.40;99.90;;;;;;5003707;28;20027;-72
2021/09/05 10:37:07;;;;;;;7.13;2.13;;;21.40;99.90;;;;;;5001265;28;20501;-72
2021/09/05 10:39:33;;;;;;;9.32;2.83;;;21.40;99.90;;;;;;5007508;28;20061;-72
2021/09/05 10:41:59;;;;;;;9.75;2.80;;;21.50;99.90;;;;;;4991477;28;20037;-70
2021/09/05 10:44:24;;;;;;;7.32;2.75;;;21.50;99.90;;;;;;5000537;28;20039;-72
2021/09/05 10:46:55;;;;;;;5.57;2.85;;;21.60;99.90;;;;;;5004130;28;20509;-69
2021/09/05 10:49:40;;;;;;;6.43;2.58;;;21.50;99.90;;;;;;5000661;28;20061;-70
2021/09/05 10:52:07;;;;;;;4.90;2.08;;;21.50;99.90;;;;;;4984656;28;20118;-70
2021/09/05 10:54:43;;;;;;;9.05;2.45;;;21.60;99.90;;;;;;5002788;28;20069;-70
2021/09/05 10:57:09;;;;;;;8.93;2.85;;;21.60;99.90;;;;;;4984674;28;20099;-69
2021/09/05 10:59:35;;;;;;;7.40;2.70;;;21.60;99.90;;;;;;5002156;28;20041;-70
2021/09/05 11:02:03;;;;;;;5.63;2.50;;;21.60;99.90;;;;;;5001835;28;20031;-70
2021/09/05 11:04:39;;;;;;;7.10;2.53;;;21.60;99.90;;;;;;5002577;28;20042;-70
2021/09/05 11:07:08;;;;;;;5.25;2.55;;;21.60;99.90;;;;;;5002217;28;20053;-70
2021/09/05 11:09:33;;;;;;;6.35;2.80;;;21.70;99.90;;;;;;5002180;28;20512;-72
2021/09/05 11:12:11;;;;;;;5.70;2.78;;;21.70;99.90;;;;;;5001207;28;20038;-69
2021/09/05 11:14:49;;;;;;;8.55;2.83;;;21.70;99.90;;;;;;5001470;28;20490;-69
2021/09/05 11:17:16;;;;;;;6.30;2.80;;;21.60;99.90;;;;;;4985321;28;20057;-70
2021/09/05 11:19:41;;;;;;;10.68;2.55;;;21.60;99.90;;;;;;4983397;28;20042;-70
2021/09/05 11:22:07;;;;;;;5.93;2.92;;;21.60;99.90;;;;;;4984689;28;20088;-70
2021/09/05 11:24:33;;;;;;;7.97;2.67;;;21.60;99.90;;;;;;4983720;28;20380;-70
2021/09/05 11:27:07;;;;;;;7.47;2.60;;;21.50;99.90;;;;;;4983544;28;20045;-70
2021/09/05 11:29:33;;;;;;;5.95;3.03;;;21.50;99.90;;;;;;4983494;28;20030;-70
2021/09/05 11:32:07;;;;;;;6.32;2.00;;;21.50;99.90;;;;;;5001074;28;20042;-70
2021/09/05 11:34:33;;;;;;;5.88;2.70;;;21.50;99.90;;;;;;5001307;28;20026;-69
2021/09/05 11:36:59;;;;;;;7.50;2.60;;;21.50;99.90;;;;;;5000763;28;20050;-69
2021/09/05 11:39:25;;;;;;;6.88;2.80;;;21.60;99.90;;;;;;5005366;28;20026;-69
2021/09/05 11:41:52;;;;;;;5.35;2.47;;;21.60;99.90;;;;;;5005873;28;20037;-69
2021/09/05 11:44:36;;;;;;;5.10;2.33;;;21.50;99.90;;;;;;4999201;28;20034;-70
2021/09/05 11:47:10;;;;;;;6.80;2.92;;;21.50;99.90;;;;;;5000176;28;20383;-69
2021/09/05 11:49:45;;;;;;;6.63;2.50;;;21.50;99.90;;;;;;5013639;28;20732;-69
2021/09/05 11:52:10;;;;;;;5.53;2.35;;;21.50;99.90;;;;;;5000320;28;20035;-71
2021/09/05 11:54:36;;;;;;;5.53;2.50;;;21.50;99.90;;;;;;5001293;28;20035;-70
2021/09/05 11:57:02;;;;;;;7.93;2.58;;;21.50;99.90;;;;;;5005037;28;20038;-69
2021/09/05 11:59:28;;;;;;;5.90;2.00;;;21.50;99.90;;;;;;5001197;28;20040;-69
2021/09/05 12:01:54;;;;;;;5.28;2.47;;;21.60;99.90;;;;;;4982477;28;20038;-70
2021/09/05 12:04:20;;;;;;;5.80;2.90;;;21.50;99.90;;;;;;5004675;28;20040;-70
2021/09/05 12:06:46;;;;;;;8.13;2.55;;;21.50;99.90;;;;;;5002077;28;20041;-70
2021/09/05 12:09:24;;;;;;;3.72;2.03;;;21.50;99.90;;;;;;5000303;28;20034;-69
2021/09/05 12:11:53;;;;;;;8.77;3.22;;;21.50;99.90;;;;;;4981583;28;20030;-70
2021/09/05 12:14:35;;;;;;;6.10;2.83;;;21.60;99.90;;;;;;4984919;28;20044;-70
2021/09/05 12:17:26;;;;;;;5.80;2.58;;;21.60;99.90;;;;;;4982978;28;20038;-69
2021/09/05 12:20:03;;;;;;;15.20;2.70;;;21.60;99.90;;;;;;4999440;28;20073;-69
2021/09/05 12:22:51;;;;;;;6.30;2.63;;;21.50;99.90;;;;;;5003462;28;20038;-70
2021/09/05 12:25:31;;;;;;;5.88;2.50;;;21.50;99.90;;;;;;4981214;28;20038;-70
2021/09/05 12:28:01;;;;;;;;;;;21.50;99.90;;;;;;4998919;28;20495;-70
2021/09/05 12:30:33;;;;;;;8.93;2.92;;;21.50;99.90;;;;;;5001068;28;19913;-70
2021/09/05 12:33:08;;;;;;;7.47;2.75;;;21.60;99.90;;;;;;5000158;28;20039;-69
2021/09/05 12:35:35;;;;;;;5.63;2.05;;;21.60;99.90;;;;;;4999865;28;20130;-70
2021/09/05 12:38:11;;;;;;;5.90;2.92;;;21.60;99.90;;;;;;4982583;28;20081;-70
2021/09/05 12:40:42;;;;;;;6.07;2.80;;;21.70;99.90;;;;;;5015053;28;20046;-69
2021/09/05 12:43:09;;;;;;;5.15;2.83;;;21.70;99.90;;;;;;5000978;28;20117;-71